Time;durP1;ratioP1;P1;durP2;ratioP2;P2;SDS_P1;SDS_P2;PMS_P1;PMS_P2;Temp;Humidity;BMP_temperature;BMP_pressure;BME280_temperature;BME280_humidity;BME280_pressure;Samples;Min_cycle;Max_cycle;Signal;HPM_P1;HPM_P2
2022/07/09 00:01:39;;;;;;;6.35;1.65;;;18.50;98.90;;;;;;5011811;28;20030;-77
2022/07/09 00:04:04;;;;;;;3.60;2.15;;;18.50;98.90;;;;;;5011188;28;20092;-78
2022/07/09 00:06:31;;;;;;;5.32;1.98;;;18.50;99.00;;;;;;5011511;28;20084;-77
2022/07/09 00:08:58;;;;;;;5.70;2.13;;;18.50;99.30;;;;;;5011549;28;20121;-78
2022/07/09 00:11:24;;;;;;;7.50;2.08;;;18.40;99.00;;;;;;5011623;28;20448;-77
2022/07/09 00:13:50;;;;;;;7.18;2.08;;;18.40;99.10;;;;;;5011319;28;20045;-77
2022/07/09 00:16:27;;;;;;;3.45;2.15;;;18.40;98.90;;;;;;5009871;28;20018;-77
2022/07/09 00:18:53;;;;;;;4.78;2.20;;;18.40;99.00;;;;;;5012039;28;20026;-77
2022/07/09 00:21:19;;;;;;;8.35;2.92;;;18.40;99.10;;;;;;5011272;28;20030;-77
2022/07/09 00:23:44;;;;;;;7.82;2.50;;;18.30;99.20;;;;;;5011366;28;20456;-76
2022/07/09 00:26:26;;;;;;;19.70;3.58;;;18.30;99.20;;;;;;5010857;28;20368;-78
2022/07/09 00:28:52;;;;;;;17.10;3.55;;;18.30;99.30;;;;;;5010340;28;20151;-78
2022/07/09 00:31:17;;;;;;;11.48;2.97;;;18.20;99.30;;;;;;5011230;28;20030;-78
2022/07/09 00:33:43;;;;;;;10.77;3.50;;;18.20;99.40;;;;;;5010367;28;20045;-77
2022/07/09 00:36:20;;;;;;;12.95;3.20;;;18.20;99.40;;;;;;5011082;28;20353;-77
2022/07/09 00:38:46;;;;;;;10.35;2.30;;;18.20;99.40;;;;;;5010735;28;20037;-77
2022/07/09 00:41:27;;;;;;;10.40;2.67;;;18.20;99.40;;;;;;5010024;28;20025;-77
2022/07/09 00:43:53;;;;;;;12.02;4.13;;;18.10;99.40;;;;;;5011095;28;20049;-77
2022/07/09 00:46:27;;;;;;;5.05;2.35;;;18.10;99.40;;;;;;5010600;28;20033;-76
2022/07/09 00:48:53;;;;;;;11.05;2.53;;;18.00;99.50;;;;;;5011380;28;20342;-77
2022/07/09 00:51:28;;;;;;;10.45;3.00;;;18.00;99.50;;;;;;5010934;28;20257;-78
2022/07/09 00:53:53;;;;;;;14.02;3.40;;;18.00;99.40;;;;;;5010570;28;20429;-78
2022/07/09 00:56:28;;;;;;;9.30;3.40;;;18.00;99.40;;;;;;5010375;28;20124;-79
2022/07/09 00:58:55;;;;;;;8.15;3.60;;;18.00;99.40;;;;;;5010890;28;20491;-78
2022/07/09 01:01:26;;;;;;;10.27;3.28;;;18.00;99.40;;;;;;5009701;28;20037;-77
2022/07/09 01:03:52;;;;;;;7.88;3.00;;;18.00;99.40;;;;;;5010169;28;20015;-77
2022/07/09 01:06:27;;;;;;;10.30;3.53;;;18.00;99.10;;;;;;5010532;28;20373;-78
2022/07/09 01:08:53;;;;;;;10.15;3.30;;;17.90;99.40;;;;;;5010649;28;20484;-77
2022/07/09 01:11:19;;;;;;;8.32;2.65;;;17.90;99.50;;;;;;5010600;28;20304;-78
2022/07/09 01:13:46;;;;;;;9.90;3.88;;;17.90;99.80;;;;;;5010409;28;20045;-78
2022/07/09 01:16:34;;;;;;;5.80;2.92;;;17.90;99.30;;;;;;5010560;28;20029;-77
2022/07/09 01:19:01;;;;;;;10.05;3.05;;;17.90;99.40;;;;;;5011131;28;20105;-78
2022/07/09 01:21:32;;;;;;;8.00;2.58;;;17.90;99.40;;;;;;5010509;28;20409;-77
2022/07/09 01:23:58;;;;;;;9.80;2.88;;;17.90;99.50;;;;;;5010409;28;20091;-77
2022/07/09 01:26:24;;;;;;;13.90;3.00;;;17.90;99.40;;;;;;5010245;28;20053;-77
2022/07/09 01:28:50;;;;;;;4.60;2.35;;;17.90;99.40;;;;;;5010600;28;20563;-76
2022/07/09 01:31:25;;;;;;;9.35;2.80;;;17.90;99.50;;;;;;5009481;28;20109;-77
2022/07/09 01:33:50;;;;;;;9.20;2.95;;;17.90;99.40;;;;;;5010771;28;20030;-78
2022/07/09 01:36:25;;;;;;;12.27;3.15;;;17.80;99.50;;;;;;5009160;28;20333;-78
2022/07/09 01:38:51;;;;;;;12.40;3.50;;;17.90;99.60;;;;;;5014272;28;20460;-77
2022/07/09 01:41:23;;;;;;;13.73;2.97;;;17.80;99.70;;;;;;5014012;28;20033;-78
2022/07/09 01:43:48;;;;;;;8.95;2.78;;;17.80;99.50;;;;;;5014294;28;20197;-78
2022/07/09 01:46:14;;;;;;;8.57;2.65;;;17.80;99.60;;;;;;5014090;28;20106;-77
2022/07/09 01:48:42;;;;;;;11.73;3.05;;;17.80;99.50;;;;;;5014469;28;20410;-77
2022/07/09 01:51:25;;;;;;;13.98;3.20;;;17.70;99.90;;;;;;5014051;28;20456;-78
2022/07/09 01:53:51;;;;;;;11.82;3.67;;;17.70;99.80;;;;;;5013619;28;20054;-79
2022/07/09 01:56:20;;;;;;;10.45;3.53;;;17.60;99.90;;;;;;5029315;28;20324;-80
2022/07/09 01:58:46;;;;;;;9.20;3.13;;;17.70;99.90;;;;;;5013887;28;20026;-79
2022/07/09 02:01:27;;;;;;;9.70;2.55;;;17.60;99.90;;;;;;5013781;28;20359;-78
2022/07/09 02:03:53;;;;;;;5.03;2.40;;;17.70;99.90;;;;;;5014132;28;20025;-80
2022/07/09 02:06:31;;;;;;;10.15;2.67;;;17.70;99.90;;;;;;5029332;28;20486;-78
2022/07/09 02:08:56;;;;;;;8.85;2.83;;;17.70;99.90;;;;;;5013895;28;20117;-78
2022/07/09 02:11:31;;;;;;;8.43;2.78;;;17.60;99.80;;;;;;5013848;28;20113;-78
2022/07/09 02:13:56;;;;;;;7.43;3.03;;;17.70;99.50;;;;;;5013472;28;20345;-79
2022/07/09 02:16:22;;;;;;;7.57;2.38;;;17.70;99.70;;;;;;5013738;28;20444;-79
2022/07/09 02:18:48;;;;;;;10.82;3.40;;;17.70;99.60;;;;;;5014464;28;20030;-78
2022/07/09 02:21:36;;;;;;;15.88;3.72;;;17.70;99.70;;;;;;5029052;28;20407;-79
2022/07/09 02:24:03;;;;;;;10.45;3.38;;;17.70;99.70;;;;;;5028766;28;20487;-79
2022/07/09 02:26:29;;;;;;;7.05;3.00;;;17.60;99.90;;;;;;5013564;28;20038;-80
2022/07/09 02:28:55;;;;;;;12.13;3.17;;;17.60;99.90;;;;;;5013504;28;20045;-79
2022/07/09 02:31:21;;;;;;;10.35;2.80;;;17.60;99.80;;;;;;5013261;28;20030;-79
2022/07/09 02:33:47;;;;;;;13.15;2.95;;;17.40;99.90;;;;;;5013564;28;20032;-77
2022/07/09 02:36:18;;;;;;;11.18;3.22;;;17.40;99.90;;;;;;5013075;28;20526;-79
2022/07/09 02:38:43;;;;;;;11.27;2.63;;;17.50;99.90;;;;;;5013387;28;20042;-78
2022/07/09 02:41:24;;;;;;;5.20;2.45;;;17.40;99.90;;;;;;5013172;28;20427;-78
2022/07/09 02:43:50;;;;;;;10.60;3.72;;;17.40;99.90;;;;;;5013135;28;20169;-79
2022/07/09 02:46:28;;;;;;;10.02;3.10;;;17.50;99.90;;;;;;5013258;28;20451;-79
2022/07/09 02:48:54;;;;;;;9.25;3.17;;;17.40;99.90;;;;;;5013106;28;20032;-78
2022/07/09 02:51:34;;;;;;;9.38;2.50;;;17.40;99.90;;;;;;5012882;28;20034;-79
2022/07/09 02:54:00;;;;;;;11.45;3.20;;;17.50;99.90;;;;;;5027769;28;20053;-78
2022/07/09 02:56:26;;;;;;;10.77;2.70;;;17.60;99.90;;;;;;5012751;28;20117;-77
2022/07/09 02:58:51;;;;;;;11.32;2.75;;;17.60;99.90;;;;;;5013253;28;20116;-77
2022/07/09 03:01:17;;;;;;;11.68;3.20;;;17.60;99.90;;;;;;5013029;28;20018;-77
2022/07/09 03:03:43;;;;;;;9.70;3.42;;;17.60;99.90;;;;;;5013184;28;20026;-77
2022/07/09 03:06:24;;;;;;;10.05;3.03;;;17.60;99.90;;;;;;5027927;28;20038;-77
2022/07/09 03:08:49;;;;;;;8.38;3.05;;;17.60;99.90;;;;;;5012750;28;20468;-79
2022/07/09 03:11:28;;;;;;;12.05;4.10;;;17.50;99.90;;;;;;5012865;28;20376;-78
2022/07/09 03:13:54;;;;;;;8.13;3.28;;;17.50;99.90;;;;;;5012622;28;20172;-79
2022/07/09 03:16:29;;;;;;;9.18;3.53;;;17.50;99.90;;;;;;5012335;28;20356;-79
2022/07/09 03:18:55;;;;;;;14.50;3.95;;;17.40;99.90;;;;;;5011910;28;20099;-77
2022/07/09 03:21:29;;;;;;;13.60;3.85;;;17.40;99.90;;;;;;5012478;28;20456;-77
2022/07/09 03:23:55;;;;;;;9.25;3.55;;;17.50;99.90;;;;;;5012209;28;20040;-77
2022/07/09 03:26:30;;;;;;;10.23;3.08;;;17.60;99.90;;;;;;5012211;28;20026;-77
2022/07/09 03:28:55;;;;;;;5.80;3.10;;;17.60;99.90;;;;;;5012486;28;20054;-77
2022/07/09 03:31:21;;;;;;;12.27;3.63;;;17.60;99.90;;;;;;5012083;28;20068;-78
2022/07/09 03:33:47;;;;;;;8.35;3.42;;;17.60;99.90;;;;;;5012594;28;20096;-79
2022/07/09 03:36:28;;;;;;;12.70;4.93;;;17.60;99.90;;;;;;5012031;28;20034;-77
2022/07/09 03:38:54;;;;;;;9.98;3.92;;;17.60;99.90;;;;;;5012054;28;20095;-78
2022/07/09 03:41:22;;;;;;;5.25;3.13;;;17.70;99.90;;;;;;5011953;28;20360;-78
2022/07/09 03:43:48;;;;;;;6.18;3.95;;;17.70;99.90;;;;;;5012310;28;20030;-79
2022/07/09 03:46:24;;;;;;;11.02;3.38;;;17.70;99.90;;;;;;5012164;28;20107;-79
2022/07/09 03:48:50;;;;;;;7.50;3.45;;;17.70;99.90;;;;;;5027896;28;20018;-78
2022/07/09 03:51:25;;;;;;;9.38;3.65;;;17.60;99.90;;;;;;5012275;28;20053;-78
2022/07/09 03:53:51;;;;;;;8.90;3.60;;;17.50;99.90;;;;;;5027288;28;20052;-79
2022/07/09 03:56:20;;;;;;;8.10;3.40;;;17.50;99.90;;;;;;5011934;28;20029;-77
2022/07/09 03:58:46;;;;;;;7.10;3.35;;;17.40;99.90;;;;;;5011472;28;20030;-78
2022/07/09 04:01:11;;;;;;;7.45;3.67;;;17.30;99.90;;;;;;5011553;28;20022;-76
2022/07/09 04:03:37;;;;;;;9.02;3.72;;;17.30;99.90;;;;;;5012317;28;20100;-77
2022/07/09 04:06:03;;;;;;;11.68;3.80;;;17.40;99.90;;;;;;5011787;28;20026;-79
2022/07/09 04:08:29;;;;;;;10.48;4.68;;;17.30;99.90;;;;;;5011824;28;20030;-79
2022/07/09 04:10:54;;;;;;;8.38;3.20;;;17.50;99.90;;;;;;5011782;28;20100;-77
2022/07/09 04:13:20;;;;;;;10.35;4.10;;;17.40;99.90;;;;;;5011652;28;20393;-78
2022/07/09 04:15:46;;;;;;;11.23;3.50;;;17.40;99.90;;;;;;5012066;28;20026;-78
2022/07/09 04:18:15;;;;;;;9.30;3.42;;;17.40;99.90;;;;;;5026908;28;20026;-76
2022/07/09 04:20:41;;;;;;;9.20;3.00;;;17.40;99.90;;;;;;5011500;28;20419;-77
2022/07/09 04:23:06;;;;;;;6.30;3.35;;;17.40;99.90;;;;;;5011688;28;20108;-76
2022/07/09 04:25:32;;;;;;;8.98;3.67;;;17.40;99.90;;;;;;5011343;28;20045;-77
2022/07/09 04:27:59;;;;;;;7.13;3.25;;;17.40;99.90;;;;;;5012125;28;20033;-79
2022/07/09 04:30:26;;;;;;;7.65;3.65;;;17.40;99.90;;;;;;5011361;28;20066;-78
2022/07/09 04:32:52;;;;;;;10.33;3.27;;;17.30;99.90;;;;;;5011224;28;20041;-77
2022/07/09 04:35:17;;;;;;;13.02;3.50;;;17.40;99.90;;;;;;5010925;28;20275;-80
2022/07/09 04:37:43;;;;;;;12.27;3.92;;;17.50;99.90;;;;;;5011259;28;20034;-76
2022/07/09 04:40:09;;;;;;;11.85;4.10;;;17.60;99.90;;;;;;5011732;28;20091;-76
2022/07/09 04:42:35;;;;;;;10.35;3.67;;;17.60;99.90;;;;;;5011256;28;20030;-77
2022/07/09 04:45:01;;;;;;;14.40;4.47;;;17.60;99.90;;;;;;5011397;28;20041;-77
2022/07/09 04:47:27;;;;;;;12.75;4.32;;;17.70;99.90;;;;;;5026185;28;20109;-77
2022/07/09 04:49:53;;;;;;;8.77;3.80;;;17.70;99.90;;;;;;5010951;28;20133;-76
2022/07/09 04:52:19;;;;;;;9.40;4.68;;;17.70;99.90;;;;;;5026272;28;20103;-77
2022/07/09 04:54:46;;;;;;;14.88;4.35;;;17.70;99.90;;;;;;5011119;28;20334;-78
2022/07/09 04:57:13;;;;;;;8.77;3.58;;;17.70;99.90;;;;;;5011288;28;20475;-77
2022/07/09 04:59:38;;;;;;;11.45;4.25;;;17.70;99.90;;;;;;5010929;28;20044;-79
2022/07/09 05:02:04;;;;;;;9.30;4.00;;;17.80;99.90;;;;;;5011051;28;20026;-79
2022/07/09 05:04:30;;;;;;;10.88;4.13;;;17.80;99.90;;;;;;5011042;28;20034;-79
2022/07/09 05:06:56;;;;;;;17.42;4.60;;;17.90;99.90;;;;;;5011264;28;20116;-79
2022/07/09 05:09:22;;;;;;;10.77;4.97;;;17.80;99.90;;;;;;5010889;28;20042;-78
2022/07/09 05:11:48;;;;;;;12.02;5.60;;;17.80;99.90;;;;;;5013885;28;20034;-78
2022/07/09 05:14:13;;;;;;;14.95;4.50;;;17.90;99.90;;;;;;5030302;28;20038;-78
2022/07/09 05:16:44;;;;;;;13.75;5.22;;;18.00;99.90;;;;;;5014780;28;20137;-76
2022/07/09 05:19:12;;;;;;;8.80;5.60;;;17.90;99.90;;;;;;5015543;28;20037;-77
2022/07/09 05:21:39;;;;;;;13.57;5.72;;;18.00;99.90;;;;;;5014906;28;20045;-78
2022/07/09 05:24:06;;;;;;;9.95;5.43;;;18.00;99.90;;;;;;5030321;28;20049;-77
2022/07/09 05:26:36;;;;;;;21.85;6.18;;;18.10;99.90;;;;;;5030212;28;20066;-78
2022/07/09 05:29:05;;;;;;;14.55;6.40;;;18.10;99.90;;;;;;5014683;28;20448;-80
2022/07/09 05:31:30;;;;;;;22.40;6.40;;;18.00;99.90;;;;;;5014694;28;20060;-78
2022/07/09 05:33:56;;;;;;;12.45;6.18;;;18.00;99.90;;;;;;5014993;28;20104;-78
2022/07/09 05:36:22;;;;;;;17.92;6.60;;;18.00;99.90;;;;;;5029813;28;20085;-79
2022/07/09 05:38:48;;;;;;;15.90;6.43;;;18.00;99.90;;;;;;5014408;28;20272;-77
2022/07/09 05:41:26;;;;;;;10.57;6.68;;;18.10;99.90;;;;;;5014452;28;20117;-78
2022/07/09 05:43:52;;;;;;;14.80;6.63;;;18.10;99.90;;;;;;5014358;28;20022;-79
2022/07/09 05:46:30;;;;;;;18.05;7.80;;;18.10;99.90;;;;;;5014134;28;20088;-77
2022/07/09 05:48:56;;;;;;;18.63;7.35;;;18.00;99.90;;;;;;5014658;28;20132;-79
2022/07/09 05:51:34;;;;;;;14.77;6.82;;;18.00;99.90;;;;;;5014008;28;20062;-78
2022/07/09 05:54:00;;;;;;;17.08;8.23;;;18.20;99.90;;;;;;5009825;28;20050;-78
2022/07/09 05:56:26;;;;;;;18.90;7.53;;;18.20;99.90;;;;;;5004923;28;20104;-78
2022/07/09 05:58:52;;;;;;;16.63;7.90;;;18.00;99.90;;;;;;5028510;28;20050;-78
2022/07/09 06:01:38;;;;;;;15.90;7.35;;;18.10;99.90;;;;;;5015079;28;20088;-78
2022/07/09 06:04:05;;;;;;;12.68;6.60;;;18.10;99.90;;;;;;5015449;28;20018;-78
2022/07/09 06:06:30;;;;;;;14.55;7.05;;;18.10;99.90;;;;;;5013800;28;20037;-77
2022/07/09 06:08:56;;;;;;;13.05;6.60;;;18.20;99.90;;;;;;5014818;28;20099;-78
2022/07/09 06:11:31;;;;;;;14.07;6.47;;;18.30;99.90;;;;;;5014967;28;20089;-78
2022/07/09 06:13:56;;;;;;;14.52;6.50;;;18.40;99.90;;;;;;5029698;28;20129;-79
2022/07/09 06:16:22;;;;;;;15.57;6.25;;;18.40;99.90;;;;;;5014779;28;20536;-79
2022/07/09 06:18:48;;;;;;;16.45;6.85;;;18.50;99.90;;;;;;5015025;28;20033;-80
2022/07/09 06:21:26;;;;;;;14.82;6.32;;;18.50;99.90;;;;;;5014732;28;20030;-80
2022/07/09 06:23:51;;;;;;;9.82;5.90;;;18.60;99.90;;;;;;5013651;28;20464;-81
2022/07/09 06:26:20;;;;;;;12.43;5.50;;;18.60;99.90;;;;;;5014389;28;20076;-81
2022/07/09 06:28:46;;;;;;;9.27;5.38;;;18.60;99.90;;;;;;5029863;28;20084;-80
2022/07/09 06:31:21;;;;;;;14.80;6.13;;;18.70;99.90;;;;;;5013220;28;20368;-81
2022/07/09 06:33:46;;;;;;;20.15;6.65;;;18.60;99.90;;;;;;5014736;28;20030;-79
2022/07/09 06:36:24;;;;;;;11.88;4.78;;;18.60;99.90;;;;;;5013647;28;20026;-80
2022/07/09 06:41:37;;;;;;;12.40;4.30;;;18.70;99.90;;;;;;5014272;28;20483;-81
2022/07/09 06:44:02;;;;;;;10.02;3.78;;;18.70;99.90;;;;;;5014313;28;20056;-80
2022/07/09 06:46:28;;;;;;;8.05;3.85;;;18.90;99.90;;;;;;5014595;28;20038;-79
2022/07/09 06:48:54;;;;;;;9.75;4.43;;;19.00;99.90;;;;;;5014278;28;20384;-80
2022/07/09 06:51:25;;;;;;;8.95;3.70;;;19.00;99.90;;;;;;5014151;28;20088;-79
2022/07/09 06:53:50;;;;;;;6.22;3.17;;;19.00;99.90;;;;;;5029656;28;20061;-79
2022/07/09 06:56:25;;;;;;;10.65;3.33;;;19.00;99.90;;;;;;5013986;28;20460;-79
2022/07/09 06:58:51;;;;;;;7.43;3.22;;;19.10;99.90;;;;;;5013717;28;20030;-78
2022/07/09 07:01:22;;;;;;;5.95;2.72;;;19.20;99.90;;;;;;5013609;28;20029;-78
2022/07/09 07:03:48;;;;;;;7.05;2.80;;;19.20;99.90;;;;;;5013721;28;20042;-78
2022/07/09 07:06:29;;;;;;;3.75;2.25;;;19.20;99.90;;;;;;5013655;28;20343;-78
2022/07/09 07:08:54;;;;;;;8.40;2.58;;;19.30;99.90;;;;;;5014015;28;20456;-77
2022/07/09 07:11:23;;;;;;;8.20;2.45;;;19.30;99.90;;;;;;5013595;28;20033;-78
2022/07/09 07:13:49;;;;;;;5.25;2.13;;;19.30;99.90;;;;;;5013299;28;20042;-77
2022/07/09 07:16:30;;;;;;;7.57;2.53;;;19.30;99.90;;;;;;5013230;28;20422;-76
2022/07/09 07:18:55;;;;;;;4.97;1.95;;;19.30;99.90;;;;;;5013104;28;20120;-77
2022/07/09 07:21:21;;;;;;;4.05;1.92;;;19.30;99.90;;;;;;5012956;28;20109;-78
2022/07/09 07:23:47;;;;;;;4.20;1.80;;;19.40;99.90;;;;;;5013460;28;20113;-80
2022/07/09 07:26:21;;;;;;;7.38;2.65;;;19.50;99.70;;;;;;5012990;28;20042;-78
2022/07/09 07:28:48;;;;;;;6.65;2.28;;;19.60;99.70;;;;;;5013068;28;20046;-76
2022/07/09 07:31:26;;;;;;;12.50;2.27;;;19.60;99.60;;;;;;5012902;28;20437;-78
2022/07/09 07:33:53;;;;;;;10.00;2.40;;;19.70;99.50;;;;;;5011943;28;20439;-75
2022/07/09 07:36:21;;;;;;;7.40;2.00;;;19.70;99.50;;;;;;5012453;28;20406;-77
2022/07/09 07:38:47;;;;;;;5.75;2.20;;;19.70;99.30;;;;;;5028608;28;20421;-78
2022/07/09 07:41:26;;;;;;;4.20;2.45;;;19.70;99.40;;;;;;5028084;28;20275;-76
2022/07/09 07:43:51;;;;;;;7.32;2.58;;;19.70;99.40;;;;;;5012699;28;20538;-80
2022/07/09 07:46:20;;;;;;;8.45;2.33;;;19.70;99.50;;;;;;5012383;28;20030;-75
2022/07/09 07:48:48;;;;;;;2.88;1.80;;;19.60;99.60;;;;;;5012495;28;20415;-74
2022/07/09 07:51:27;;;;;;;4.20;1.90;;;19.70;99.30;;;;;;5011548;28;20021;-79
2022/07/09 07:53:52;;;;;;;6.63;2.15;;;19.80;99.20;;;;;;5028257;28;20112;-80
2022/07/09 07:56:39;;;;;;;7.15;2.63;;;19.80;99.00;;;;;;5012687;28;20472;-78
2022/07/09 07:59:05;;;;;;;6.55;3.75;;;19.90;98.90;;;;;;5012422;28;20120;-76
2022/07/09 08:01:33;;;;;;;4.53;1.80;;;19.80;98.80;;;;;;5012202;28;20126;-75
2022/07/09 08:03:58;;;;;;;6.05;2.22;;;19.80;98.90;;;;;;5012201;28;20038;-75
2022/07/09 08:06:36;;;;;;;7.45;2.20;;;19.80;98.90;;;;;;5012457;28;20052;-77
2022/07/09 08:09:03;;;;;;;8.52;2.00;;;19.90;99.10;;;;;;5012560;28;20436;-79
2022/07/09 08:11:31;;;;;;;11.00;2.63;;;20.00;98.90;;;;;;5012430;28;20026;-77
2022/07/09 08:13:57;;;;;;;5.65;2.08;;;20.00;98.80;;;;;;5012518;28;20110;-75
2022/07/09 08:16:57;;;;;;;4.90;2.22;;;20.00;98.70;;;;;;5012367;28;20041;-76
2022/07/09 08:19:23;;;;;;;20.35;2.92;;;20.00;98.80;;;;;;5012207;28;20088;-74
2022/07/09 08:22:01;;;;;;;7.75;2.10;;;20.00;98.90;;;;;;5011516;28;20046;-76
2022/07/09 08:24:27;;;;;;;4.82;2.30;;;20.10;98.70;;;;;;5011935;28;20109;-74
2022/07/09 08:30:14;;;;;;;9.43;1.90;;;20.00;98.80;;;;;;5025093;28;20056;-75
2022/07/09 08:32:40;;;;;;;5.60;1.75;;;20.10;98.70;;;;;;5031240;28;20466;-75
2022/07/09 08:35:06;;;;;;;4.55;2.67;;;20.10;98.80;;;;;;5029654;28;20361;-76
2022/07/09 08:37:32;;;;;;;10.73;2.55;;;20.10;98.60;;;;;;5031184;28;20029;-78
2022/07/09 08:39:58;;;;;;;7.20;2.50;;;20.10;98.60;;;;;;5029721;28;20029;-79
2022/07/09 08:42:23;;;;;;;5.25;2.47;;;20.20;98.40;;;;;;5031021;28;20025;-79
2022/07/09 08:44:50;;;;;;;8.10;2.53;;;20.30;98.30;;;;;;5030270;28;20460;-77
2022/07/09 08:47:16;;;;;;;6.38;1.80;;;20.30;98.10;;;;;;5030836;28;20049;-77
2022/07/09 08:49:43;;;;;;;3.88;2.20;;;20.30;98.10;;;;;;5030740;28;20030;-77
2022/07/09 08:52:10;;;;;;;4.00;2.22;;;20.30;98.00;;;;;;5030964;28;20048;-77
2022/07/09 08:54:40;;;;;;;4.07;1.77;;;20.30;97.90;;;;;;5030701;28;20042;-77
2022/07/09 08:57:07;;;;;;;4.28;2.13;;;20.30;97.80;;;;;;5030975;28;20659;-76
2022/07/09 08:59:34;;;;;;;3.53;2.13;;;20.20;98.00;;;;;;5031313;28;20029;-79
2022/07/09 09:02:08;;;;;;;5.97;1.88;;;20.30;98.00;;;;;;5031058;28;20045;-78
2022/07/09 09:04:34;;;;;;;3.90;2.05;;;20.30;98.00;;;;;;5030588;28;20485;-78
2022/07/09 09:07:17;;;;;;;5.10;2.50;;;20.30;98.00;;;;;;5029172;28;20033;-78
2022/07/09 09:09:46;;;;;;;6.28;2.40;;;20.40;97.90;;;;;;5030504;28;20032;-81
2022/07/09 09:12:13;;;;;;;4.80;1.88;;;20.40;97.80;;;;;;5029801;28;20436;-79
2022/07/09 09:14:39;;;;;;;5.85;2.92;;;20.30;97.80;;;;;;5031254;28;20092;-75
2022/07/09 09:17:11;;;;;;;4.93;2.20;;;20.40;97.80;;;;;;5030796;28;20394;-78
2022/07/09 09:19:38;;;;;;;8.05;2.20;;;20.50;97.70;;;;;;5029841;28;20026;-78
2022/07/09 09:22:04;;;;;;;6.68;2.00;;;20.50;97.60;;;;;;5030789;28;20379;-77
2022/07/09 09:24:30;;;;;;;3.95;2.05;;;20.60;97.70;;;;;;5031005;28;20065;-80
2022/07/09 09:26:59;;;;;;;4.65;2.10;;;20.70;97.20;;;;;;5029819;28;20049;-80
2022/07/09 09:29:26;;;;;;;2.25;1.45;;;20.60;96.90;;;;;;5030672;28;20109;-80
2022/07/09 09:31:52;;;;;;;3.67;1.65;;;20.60;96.90;;;;;;5030509;28;20029;-82
2022/07/09 09:34:19;;;;;;;3.35;1.40;;;20.60;96.80;;;;;;5030817;28;20026;-82
2022/07/09 09:36:50;;;;;;;4.70;1.58;;;21.00;97.00;;;;;;5030154;28;20034;-81
2022/07/09 09:39:24;;;;;;;6.72;1.90;;;21.40;96.60;;;;;;5029391;28;20021;-79
2022/07/09 09:41:56;;;;;;;5.88;1.73;;;21.50;95.70;;;;;;5031118;28;20024;-79
2022/07/09 09:44:25;;;;;;;5.07;1.80;;;21.70;95.20;;;;;;5030447;28;20033;-80
2022/07/09 09:46:53;;;;;;;5.22;2.53;;;21.70;94.90;;;;;;5030471;28;20040;-81
2022/07/09 09:49:19;;;;;;;4.47;1.83;;;21.80;94.70;;;;;;5030322;28;20026;-80
2022/07/09 09:51:56;;;;;;;4.78;1.60;;;21.90;94.40;;;;;;5030248;28;20035;-81
2022/07/09 09:54:21;;;;;;;5.68;1.83;;;22.00;94.10;;;;;;5029882;28;20038;-81
2022/07/09 09:56:50;;;;;;;2.00;1.38;;;22.20;93.90;;;;;;5030852;28;20087;-81
2022/07/09 09:59:17;;;;;;;6.13;1.60;;;22.20;93.30;;;;;;5033501;28;20034;-80
2022/07/09 10:01:45;;;;;;;2.88;1.13;;;22.20;93.10;;;;;;5033318;28;20041;-80
2022/07/09 10:04:13;;;;;;;3.72;0.98;;;22.30;92.80;;;;;;5032762;28;20148;-79
2022/07/09 10:06:40;;;;;;;6.80;1.58;;;22.20;92.70;;;;;;5032617;28;20096;-79
2022/07/09 10:09:07;;;;;;;3.58;1.38;;;22.00;92.60;;;;;;5034461;28;20350;-76
2022/07/09 10:11:47;;;;;;;2.17;1.27;;;22.10;92.30;;;;;;5033934;28;20041;-77
2022/07/09 10:14:23;;;;;;;2.67;1.25;;;22.20;92.30;;;;;;5034251;28;20037;-78
2022/07/09 10:16:49;;;;;;;2.33;0.90;;;22.30;92.10;;;;;;5033527;28;20030;-81
2022/07/09 10:19:25;;;;;;;2.42;1.20;;;22.30;91.40;;;;;;5033669;28;20040;-76
2022/07/09 10:21:56;;;;;;;5.28;1.38;;;22.50;91.70;;;;;;5033813;28;20036;-75
2022/07/09 10:24:29;;;;;;;3.17;1.30;;;22.70;91.20;;;;;;5016123;28;20103;-75
2022/07/09 10:27:11;;;;;;;1.67;0.82;;;22.90;90.80;;;;;;5033785;28;20521;-76
2022/07/09 10:29:56;;;;;;;2.75;1.40;;;23.20;90.50;;;;;;5033508;28;20029;-76
2022/07/09 10:32:31;;;;;;;1.85;1.05;;;23.40;90.20;;;;;;5033038;28;20101;-76
2022/07/09 10:35:01;;;;;;;5.30;1.40;;;23.20;90.30;;;;;;5033121;28;20037;-76
2022/07/09 10:37:42;;;;;;;6.70;1.60;;;23.20;90.20;;;;;;5031977;28;20030;-78
2022/07/09 10:40:13;;;;;;;4.28;1.30;;;23.30;90.00;;;;;;5032947;28;20030;-77
2022/07/09 10:42:41;;;;;;;3.00;1.40;;;23.30;89.30;;;;;;5032050;28;20431;-77
2022/07/09 10:45:36;;;;;;;3.08;1.42;;;23.20;90.00;;;;;;5033703;28;20093;-75
2022/07/09 10:48:04;;;;;;;4.47;1.33;;;23.10;90.20;;;;;;5027713;28;20471;-75
2022/07/09 10:50:31;;;;;;;3.47;1.90;;;23.30;90.30;;;;;;5033192;28;20403;-75
2022/07/09 10:52:59;;;;;;;4.90;1.52;;;23.40;89.50;;;;;;5032973;28;20087;-76
2022/07/09 10:55:26;;;;;;;1.75;0.95;;;23.40;88.60;;;;;;5032609;28;20053;-75
2022/07/09 10:57:53;;;;;;;2.17;1.13;;;23.20;87.50;;;;;;5032859;28;20113;-74
2022/07/09 11:00:39;;;;;;;4.35;1.10;;;23.20;86.90;;;;;;5033465;28;20420;-76
2022/07/09 11:03:06;;;;;;;1.90;0.80;;;23.20;86.10;;;;;;5033351;28;20037;-73
2022/07/09 11:05:34;;;;;;;1.23;0.77;;;23.40;85.50;;;;;;5032828;28;20040;-75
2022/07/09 11:07:59;;;;;;;;;;;23.60;85.50;;;;;;5033503;28;20125;-75
2022/07/09 11:10:27;;;;;;;1.40;0.73;;;23.70;84.80;;;;;;5032759;28;20011;-74
2022/07/09 11:12:53;;;;;;;;;;;23.70;84.40;;;;;;5032959;28;20038;-76
2022/07/09 11:15:20;;;;;;;1.13;0.68;;;23.60;84.20;;;;;;5032836;28;19913;-74
2022/07/09 11:18:01;;;;;;;3.55;0.90;;;23.70;84.20;;;;;;5033156;28;20452;-76
2022/07/09 11:20:28;;;;;;;3.10;1.40;;;23.70;85.00;;;;;;5032426;28;20030;-75
2022/07/09 11:23:01;;;;;;;2.42;1.02;;;23.70;84.70;;;;;;5032461;28;20041;-75
2022/07/09 11:25:28;;;;;;;11.38;1.60;;;23.80;84.70;;;;;;5032329;28;20088;-78
2022/07/09 11:27:58;;;;;;;5.43;1.23;;;23.80;83.10;;;;;;5031380;28;20048;-76
2022/07/09 11:30:24;;;;;;;2.92;0.88;;;23.60;83.10;;;;;;5030969;28;20041;-71
2022/07/09 11:32:51;;;;;;;2.35;0.95;;;23.60;83.90;;;;;;5032350;28;20033;-69
2022/07/09 11:35:27;;;;;;;2.30;1.10;;;23.60;83.80;;;;;;5031759;28;20037;-73
2022/07/09 11:37:53;;;;;;;3.38;1.30;;;23.40;83.30;;;;;;5030342;28;20021;-71
2022/07/09 11:40:19;;;;;;;1.67;0.90;;;23.60;83.70;;;;;;5030301;28;20025;-69
2022/07/09 11:42:45;;;;;;;1.05;0.70;;;23.30;83.90;;;;;;5031578;28;20026;-69
2022/07/09 11:45:11;;;;;;;4.00;1.20;;;23.50;84.40;;;;;;5031704;28;20128;-71
2022/07/09 11:47:39;;;;;;;2.90;0.90;;;23.50;84.70;;;;;;5032002;28;20021;-71
2022/07/09 11:50:12;;;;;;;3.03;1.05;;;23.40;85.60;;;;;;5031532;28;20036;-70
2022/07/09 11:52:50;;;;;;;3.75;1.92;;;23.50;85.00;;;;;;5031458;28;20049;-70
2022/07/09 11:55:18;;;;;;;2.40;1.35;;;23.70;84.90;;;;;;5031347;28;20128;-71
2022/07/09 11:58:04;;;;;;;1.10;0.93;;;23.70;84.50;;;;;;5030253;28;20467;-74
2022/07/09 12:00:33;;;;;;;1.10;0.77;;;23.80;84.20;;;;;;5031252;28;20040;-73
2022/07/09 12:03:00;;;;;;;7.68;4.75;;;23.80;82.60;;;;;;5032029;28;20025;-72
2022/07/09 12:05:30;;;;;;;4.13;1.70;;;23.90;81.80;;;;;;5030169;28;20380;-73
2022/07/09 12:07:59;;;;;;;2.80;1.20;;;23.60;81.40;;;;;;5031125;28;20030;-72
2022/07/09 12:10:30;;;;;;;2.15;1.00;;;23.70;82.40;;;;;;5029937;28;20129;-73
2022/07/09 12:12:57;;;;;;;1.38;0.60;;;23.70;81.00;;;;;;5031010;28;20033;-71
2022/07/09 12:15:23;;;;;;;2.67;0.90;;;23.80;80.80;;;;;;5030892;28;20037;-72
2022/07/09 12:17:59;;;;;;;1.35;0.77;;;23.90;80.70;;;;;;5031524;28;20022;-72
2022/07/09 12:20:28;;;;;;;1.40;1.27;;;23.90;79.70;;;;;;5029349;28;20029;-72
2022/07/09 12:22:54;;;;;;;2.28;0.80;;;23.90;80.00;;;;;;5030913;28;20219;-70
2022/07/09 12:25:20;;;;;;;2.33;0.80;;;23.90;79.80;;;;;;5031189;28;20025;-71
2022/07/09 12:27:47;;;;;;;1.92;0.93;;;23.90;79.70;;;;;;5030778;28;20116;-71
2022/07/09 12:30:13;;;;;;;1.05;0.73;;;23.90;78.60;;;;;;5029949;28;20037;-72
2022/07/09 12:32:42;;;;;;;2.25;0.90;;;23.90;78.70;;;;;;5031283;28;20055;-71
2022/07/09 12:35:09;;;;;;;3.78;1.10;;;23.80;78.90;;;;;;5030720;28;20025;-71
2022/07/09 12:37:39;;;;;;;3.55;2.28;;;23.70;78.80;;;;;;5030966;28;20100;-71
2022/07/09 12:40:06;;;;;;;3.95;1.50;;;23.60;79.90;;;;;;5030773;28;20025;-71
2022/07/09 12:42:33;;;;;;;2.83;1.20;;;23.60;79.40;;;;;;5030897;28;20108;-71
2022/07/09 12:44:59;;;;;;;3.42;1.00;;;23.40;78.40;;;;;;5031407;28;20029;-72
2022/07/09 12:47:24;;;;;;;4.53;1.23;;;23.20;79.40;;;;;;5029931;28;20033;-71
2022/07/09 12:49:50;;;;;;;11.50;1.67;;;22.90;88.20;;;;;;5031132;28;20042;-71
2022/07/09 12:52:16;;;;;;;11.52;1.98;;;22.30;93.20;;;;;;5030700;28;20057;-72
2022/07/09 12:54:42;;;;;;;10.18;2.30;;;22.10;95.50;;;;;;5029425;28;20487;-73
2022/07/09 12:57:07;;;;;;;7.88;2.55;;;22.30;97.10;;;;;;5030765;28;20479;-73
2022/07/09 12:59:33;;;;;;;2.92;1.50;;;22.40;97.00;;;;;;5031959;28;20030;-72